sensor_id;sensor_type;location;lat;lon;timestamp;pressure;altitude;pressure_sealevel;temperature;humidity
74868;BME280;63419;42.262;12.210;2022-09-09T16:08:12;97327.31;;;28.56;100.00
74868;BME280;63419;42.262;12.210;2022-09-09T16:10:40;97329.34;;;28.54;100.00
74868;BME280;63419;42.262;12.210;2022-09-09T16:13:07;97332.63;;;28.56;100.00
74868;BME280;63419;42.262;12.210;2022-09-09T16:19:43;97303.00;;;28.02;100.00
74868;BME280;63419;42.262;12.210;2022-09-09T16:22:12;97310.09;;;27.69;100.00
74868;BME280;63419;42.262;12.210;2022-09-09T16:24:41;97307.50;;;28.01;100.00
74868;BME280;63419;42.262;12.210;2022-09-09T16:27:07;97300.78;;;28.74;100.00
74868;BME280;63419;42.262;12.210;2022-09-09T16:29:33;97307.16;;;27.91;100.00
74868;BME280;63419;42.262;12.210;2022-09-09T16:31:59;97304.41;;;28.98;100.00
74868;BME280;63419;42.262;12.210;2022-09-09T16:34:26;97309.59;;;26.55;100.00
74868;BME280;63419;42.262;12.210;2022-09-09T16:36:52;97304.53;;;26.14;100.00
74868;BME280;63419;42.262;12.210;2022-09-09T16:39:23;97309.69;;;27.21;100.00
74868;BME280;63419;42.262;12.210;2022-09-09T16:41:51;97298.41;;;26.47;100.00
74868;BME280;63419;42.262;12.210;2022-09-09T16:44:20;97306.94;;;26.22;100.00
74868;BME280;63419;42.262;12.210;2022-09-09T16:46:48;97320.16;;;26.02;100.00
74868;BME280;63419;42.262;12.210;2022-09-09T16:49:17;97317.50;;;26.02;100.00
74868;BME280;63419;42.262;12.210;2022-09-09T16:51:47;97311.84;;;26.25;100.00
74868;BME280;63419;42.262;12.210;2022-09-09T16:54:19;97317.09;;;25.98;100.00
74868;BME280;63419;42.262;12.210;2022-09-09T16:57:08;97318.34;;;25.96;100.00
74868;BME280;63419;42.262;12.210;2022-09-09T16:59:34;97315.63;;;25.82;100.00
74868;BME280;63419;42.262;12.210;2022-09-09T17:02:01;97312.91;;;25.56;100.00
74868;BME280;63419;42.262;12.210;2022-09-09T17:04:30;97310.06;;;25.57;100.00
74868;BME280;63419;42.262;12.210;2022-09-09T17:06:56;97320.75;;;24.94;100.00
74868;BME280;63419;42.262;12.210;2022-09-09T17:09:27;97330.97;;;25.11;100.00
74868;BME280;63419;42.262;12.210;2022-09-09T17:11:57;97323.28;;;25.16;100.00
74868;BME280;63419;42.262;12.210;2022-09-09T17:14:24;97330.34;;;24.74;100.00
74868;BME280;63419;42.262;12.210;2022-09-09T17:16:53;97341.81;;;23.94;100.00
74868;BME280;63419;42.262;12.210;2022-09-09T17:19:19;97342.19;;;23.91;100.00
74868;BME280;63419;42.262;12.210;2022-09-09T17:21:46;97342.34;;;24.05;100.00
74868;BME280;63419;42.262;12.210;2022-09-09T17:24:15;97341.25;;;23.99;100.00
74868;BME280;63419;42.262;12.210;2022-09-09T17:26:41;97337.06;;;24.05;100.00
74868;BME280;63419;42.262;12.210;2022-09-09T17:29:07;97345.78;;;23.84;100.00
74868;BME280;63419;42.262;12.210;2022-09-09T17:31:33;97340.63;;;23.97;100.00
74868;BME280;63419;42.262;12.210;2022-09-09T17:34:00;97347.38;;;23.85;100.00
74868;BME280;63419;42.262;12.210;2022-09-09T17:36:31;97345.53;;;23.64;100.00
74868;BME280;63419;42.262;12.210;2022-09-09T17:39:03;97346.19;;;23.36;100.00
74868;BME280;63419;42.262;12.210;2022-09-09T17:41:35;97348.56;;;23.31;100.00
74868;BME280;63419;42.262;12.210;2022-09-09T17:44:07;97344.63;;;22.97;100.00
74868;BME280;63419;42.262;12.210;2022-09-09T17:46:37;97343.63;;;22.83;100.00
74868;BME280;63419;42.262;12.210;2022-09-09T17:49:10;97355.84;;;22.76;100.00
74868;BME280;63419;42.262;12.210;2022-09-09T17:51:38;97355.84;;;22.76;100.00
74868;BME280;63419;42.262;12.210;2022-09-09T17:54:09;97370.34;;;22.57;100.00
74868;BME280;63419;42.262;12.210;2022-09-09T17:56:37;97378.56;;;22.54;100.00
74868;BME280;63419;42.262;12.210;2022-09-09T17:59:06;97387.09;;;22.56;100.00
74868;BME280;63419;42.262;12.210;2022-09-09T18:01:37;97384.53;;;22.48;100.00
74868;BME280;63419;42.262;12.210;2022-09-09T18:04:07;97380.63;;;22.43;100.00
74868;BME280;63419;42.262;12.210;2022-09-09T18:06:39;97389.97;;;22.23;100.00
74868;BME280;63419;42.262;12.210;2022-09-09T18:09:14;97390.94;;;22.30;100.00
74868;BME280;63419;42.262;12.210;2022-09-09T18:11:45;97391.84;;;22.37;100.00
74868;BME280;63419;42.262;12.210;2022-09-09T18:14:18;97397.47;;;22.34;100.00
74868;BME280;63419;42.262;12.210;2022-09-09T18:16:46;97397.28;;;22.59;100.00
74868;BME280;63419;42.262;12.210;2022-09-09T18:19:17;97393.47;;;22.61;100.00
74868;BME280;63419;42.262;12.210;2022-09-09T18:21:44;97394.22;;;22.70;100.00
74868;BME280;63419;42.262;12.210;2022-09-09T18:24:12;97398.19;;;22.66;100.00
74868;BME280;63419;42.262;12.210;2022-09-09T18:26:40;97395.31;;;22.76;100.00
74868;BME280;63419;42.262;12.210;2022-09-09T18:29:13;97395.41;;;22.83;100.00
74868;BME280;63419;42.262;12.210;2022-09-09T18:31:40;97401.94;;;22.87;100.00
74868;BME280;63419;42.262;12.210;2022-09-09T18:34:11;97411.78;;;22.93;100.00
74868;BME280;63419;42.262;12.210;2022-09-09T18:36:43;97407.88;;;23.04;100.00
74868;BME280;63419;42.262;12.210;2022-09-09T18:39:14;97404.53;;;23.10;100.00
74868;BME280;63419;42.262;12.210;2022-09-09T18:41:46;97410.44;;;23.12;100.00
74868;BME280;63419;42.262;12.210;2022-09-09T18:44:18;97409.75;;;23.18;100.00
74868;BME280;63419;42.262;12.210;2022-09-09T18:46:46;97410.19;;;23.22;100.00
74868;BME280;63419;42.262;12.210;2022-09-09T18:49:14;97410.66;;;23.25;100.00
74868;BME280;63419;42.262;12.210;2022-09-09T18:51:43;97416.63;;;23.34;100.00
74868;BME280;63419;42.262;12.210;2022-09-09T18:56:42;97435.16;;;21.23;100.00
74868;BME280;63419;42.262;12.210;2022-09-09T18:59:14;97433.38;;;20.33;100.00
74868;BME280;63419;42.262;12.210;2022-09-09T19:01:41;97428.50;;;20.46;100.00
74868;BME280;63419;42.262;12.210;2022-09-09T19:04:08;97429.78;;;19.40;100.00
74868;BME280;63419;42.262;12.210;2022-09-09T19:06:40;97425.66;;;20.15;100.00
74868;BME280;63419;42.262;12.210;2022-09-09T19:09:13;97427.97;;;20.26;100.00
74868;BME280;63419;42.262;12.210;2022-09-09T19:11:40;97413.53;;;20.14;100.00
74868;BME280;63419;42.262;12.210;2022-09-09T19:14:10;97413.13;;;19.42;100.00
74868;BME280;63419;42.262;12.210;2022-09-09T19:16:37;97397.19;;;19.61;100.00
74868;BME280;63419;42.262;12.210;2022-09-09T19:19:11;97398.88;;;19.78;100.00
74868;BME280;63419;42.262;12.210;2022-09-09T19:21:40;97399.94;;;20.02;100.00
74868;BME280;63419;42.262;12.210;2022-09-09T19:24:22;97402.72;;;20.09;100.00
74868;BME280;63419;42.262;12.210;2022-09-09T19:26:52;97406.34;;;19.65;100.00
74868;BME280;63419;42.262;12.210;2022-09-09T19:29:22;97408.63;;;19.60;100.00
74868;BME280;63419;42.262;12.210;2022-09-09T19:31:50;97405.53;;;19.73;100.00
74868;BME280;63419;42.262;12.210;2022-09-09T19:34:18;97397.78;;;18.86;100.00
74868;BME280;63419;42.262;12.210;2022-09-09T19:36:46;97369.50;;;18.45;100.00
74868;BME280;63419;42.262;12.210;2022-09-09T19:39:14;97322.91;;;18.59;100.00
74868;BME280;63419;42.262;12.210;2022-09-09T19:41:41;97301.94;;;19.03;100.00
74868;BME280;63419;42.262;12.210;2022-09-09T19:44:17;97308.84;;;19.12;100.00
74868;BME280;63419;42.262;12.210;2022-09-09T19:46:44;97316.59;;;19.30;100.00
74868;BME280;63419;42.262;12.210;2022-09-09T19:49:13;97317.94;;;19.43;100.00
74868;BME280;63419;42.262;12.210;2022-09-09T19:51:40;97329.94;;;19.62;100.00
74868;BME280;63419;42.262;12.210;2022-09-09T19:54:10;97334.06;;;19.72;100.00
74868;BME280;63419;42.262;12.210;2022-09-09T19:56:39;97346.53;;;19.78;100.00
74868;BME280;63419;42.262;12.210;2022-09-09T19:59:09;97353.91;;;19.83;100.00
74868;BME280;63419;42.262;12.210;2022-09-09T20:01:41;97351.81;;;20.11;100.00
74868;BME280;63419;42.262;12.210;2022-09-09T20:04:10;97361.69;;;20.34;100.00
74868;BME280;63419;42.262;12.210;2022-09-09T20:06:40;97370.19;;;20.52;100.00
74868;BME280;63419;42.262;12.210;2022-09-09T20:09:11;97385.91;;;20.85;100.00
74868;BME280;63419;42.262;12.210;2022-09-09T20:11:40;97399.66;;;21.04;100.00
74868;BME280;63419;42.262;12.210;2022-09-09T20:14:09;97401.41;;;21.20;100.00
74868;BME280;63419;42.262;12.210;2022-09-09T20:16:37;97412.72;;;21.28;100.00
74868;BME280;63419;42.262;12.210;2022-09-09T20:19:05;97408.66;;;21.01;100.00
74868;BME280;63419;42.262;12.210;2022-09-09T20:21:37;97402.88;;;21.22;100.00
74868;BME280;63419;42.262;12.210;2022-09-09T20:24:07;97409.06;;;21.38;100.00
74868;BME280;63419;42.262;12.210;2022-09-09T20:26:36;97407.56;;;21.43;100.00
74868;BME280;63419;42.262;12.210;2022-09-09T20:29:10;97410.50;;;21.57;100.00
74868;BME280;63419;42.262;12.210;2022-09-09T20:31:39;97409.50;;;21.58;100.00
74868;BME280;63419;42.262;12.210;2022-09-09T20:34:10;97418.34;;;21.65;100.00
74868;BME280;63419;42.262;12.210;2022-09-09T20:36:38;97408.13;;;21.78;100.00
74868;BME280;63419;42.262;12.210;2022-09-09T20:39:19;97425.09;;;21.67;100.00
74868;BME280;63419;42.262;12.210;2022-09-09T20:41:47;97413.09;;;21.65;100.00
74868;BME280;63419;42.262;12.210;2022-09-09T20:44:20;97418.88;;;21.52;100.00
74868;BME280;63419;42.262;12.210;2022-09-09T20:46:50;97413.66;;;21.52;100.00
74868;BME280;63419;42.262;12.210;2022-09-09T20:49:20;97419.22;;;21.49;100.00
74868;BME280;63419;42.262;12.210;2022-09-09T20:51:48;97421.13;;;21.63;100.00
74868;BME280;63419;42.262;12.210;2022-09-09T20:54:22;97424.56;;;21.08;100.00
74868;BME280;63419;42.262;12.210;2022-09-09T20:56:49;97415.63;;;21.34;100.00
74868;BME280;63419;42.262;12.210;2022-09-09T20:59:25;97418.50;;;20.99;100.00
74868;BME280;63419;42.262;12.210;2022-09-09T21:01:53;97415.94;;;19.83;100.00
74868;BME280;63419;42.262;12.210;2022-09-09T21:04:22;97411.59;;;20.41;100.00
74868;BME280;63419;42.262;12.210;2022-09-09T21:06:49;97417.53;;;20.67;100.00
74868;BME280;63419;42.262;12.210;2022-09-09T21:09:16;97411.47;;;20.67;100.00
74868;BME280;63419;42.262;12.210;2022-09-09T21:11:42;97404.28;;;20.69;100.00
74868;BME280;63419;42.262;12.210;2022-09-09T21:14:09;97413.59;;;20.80;100.00
74868;BME280;63419;42.262;12.210;2022-09-09T21:16:40;97418.13;;;19.61;100.00
74868;BME280;63419;42.262;12.210;2022-09-09T21:19:06;97401.22;;;19.13;100.00
74868;BME280;63419;42.262;12.210;2022-09-09T21:21:33;97359.81;;;19.77;100.00
74868;BME280;63419;42.262;12.210;2022-09-09T21:24:01;97359.34;;;19.47;100.00
74868;BME280;63419;42.262;12.210;2022-09-09T21:26:27;97347.41;;;18.84;100.00
74868;BME280;63419;42.262;12.210;2022-09-09T21:28:54;97289.81;;;18.68;100.00
74868;BME280;63419;42.262;12.210;2022-09-09T21:31:21;97257.53;;;19.19;100.00
74868;BME280;63419;42.262;12.210;2022-09-09T21:33:49;97270.31;;;19.73;100.00
74868;BME280;63419;42.262;12.210;2022-09-09T21:36:16;97288.56;;;19.65;100.00
74868;BME280;63419;42.262;12.210;2022-09-09T21:38:42;97296.19;;;19.93;100.00
74868;BME280;63419;42.262;12.210;2022-09-09T21:41:13;97319.72;;;20.17;100.00
74868;BME280;63419;42.262;12.210;2022-09-09T21:43:43;97353.94;;;20.41;100.00
74868;BME280;63419;42.262;12.210;2022-09-09T21:46:13;97370.19;;;20.52;100.00
74868;BME280;63419;42.262;12.210;2022-09-09T21:48:39;97386.44;;;20.64;100.00
74868;BME280;63419;42.262;12.210;2022-09-09T21:51:09;97396.38;;;20.85;100.00
74868;BME280;63419;42.262;12.210;2022-09-09T21:53:36;97404.22;;;21.10;100.00
74868;BME280;63419;42.262;12.210;2022-09-09T21:56:08;97415.72;;;21.09;100.00
74868;BME280;63419;42.262;12.210;2022-09-09T21:58:35;97417.16;;;21.20;100.00
74868;BME280;63419;42.262;12.210;2022-09-09T22:01:12;97419.91;;;21.26;100.00
74868;BME280;63419;42.262;12.210;2022-09-09T22:03:43;97420.22;;;21.32;100.00
74868;BME280;63419;42.262;12.210;2022-09-09T22:06:13;97420.25;;;21.23;100.00
74868;BME280;63419;42.262;12.210;2022-09-09T22:08:43;97411.13;;;21.03;100.00
74868;BME280;63419;42.262;12.210;2022-09-09T22:11:17;97414.44;;;20.80;100.00
74868;BME280;63419;42.262;12.210;2022-09-09T22:13:48;97410.16;;;20.96;100.00
74868;BME280;63419;42.262;12.210;2022-09-09T22:16:19;97406.50;;;21.05;100.00
74868;BME280;63419;42.262;12.210;2022-09-09T22:18:52;97404.56;;;21.07;100.00
74868;BME280;63419;42.262;12.210;2022-09-09T22:21:19;97410.78;;;20.98;100.00
74868;BME280;63419;42.262;12.210;2022-09-09T22:23:57;97408.38;;;20.88;100.00
74868;BME280;63419;42.262;12.210;2022-09-09T22:26:26;97406.22;;;20.91;100.00
74868;BME280;63419;42.262;12.210;2022-09-09T22:28:52;97411.81;;;20.72;100.00
74868;BME280;63419;42.262;12.210;2022-09-09T22:31:20;97410.84;;;20.65;100.00
74868;BME280;63419;42.262;12.210;2022-09-09T22:33:48;97413.94;;;20.68;100.00
74868;BME280;63419;42.262;12.210;2022-09-09T22:36:14;97421.31;;;19.47;100.00
74868;BME280;63419;42.262;12.210;2022-09-09T22:38:40;97393.81;;;17.37;100.00
74868;BME280;63419;42.262;12.210;2022-09-09T22:41:06;97314.06;;;17.62;100.00
74868;BME280;63419;42.262;12.210;2022-09-09T22:43:32;97260.19;;;17.88;100.00
74868;BME280;63419;42.262;12.210;2022-09-09T22:46:00;97224.44;;;18.07;100.00
74868;BME280;63419;42.262;12.210;2022-09-09T22:48:34;97218.41;;;18.93;100.00
74868;BME280;63419;42.262;12.210;2022-09-09T22:51:06;97269.88;;;19.44;100.00
74868;BME280;63419;42.262;12.210;2022-09-09T22:53:38;97317.59;;;19.88;100.00
74868;BME280;63419;42.262;12.210;2022-09-09T22:56:09;97350.69;;;20.22;100.00
74868;BME280;63419;42.262;12.210;2022-09-09T22:58:42;97369.69;;;20.32;100.00
74868;BME280;63419;42.262;12.210;2022-09-09T23:01:18;97387.53;;;20.37;100.00
74868;BME280;63419;42.262;12.210;2022-09-09T23:03:47;97383.13;;;20.46;100.00
74868;BME280;63419;42.262;12.210;2022-09-09T23:06:21;97394.09;;;20.58;100.00
74868;BME280;63419;42.262;12.210;2022-09-09T23:08:54;97390.84;;;20.72;100.00
74868;BME280;63419;42.262;12.210;2022-09-09T23:11:23;97387.72;;;20.77;100.00
74868;BME280;63419;42.262;12.210;2022-09-09T23:13:53;97395.72;;;20.91;100.00
74868;BME280;63419;42.262;12.210;2022-09-09T23:16:31;97387.22;;;20.89;100.00
74868;BME280;63419;42.262;12.210;2022-09-09T23:18:59;97394.09;;;20.90;100.00
74868;BME280;63419;42.262;12.210;2022-09-09T23:21:28;97386.38;;;21.05;100.00
74868;BME280;63419;42.262;12.210;2022-09-09T23:23:57;97389.19;;;20.87;100.00
74868;BME280;63419;42.262;12.210;2022-09-09T23:26:25;97380.13;;;21.06;100.00
74868;BME280;63419;42.262;12.210;2022-09-09T23:28:52;97375.84;;;21.14;100.00
74868;BME280;63419;42.262;12.210;2022-09-09T23:31:22;97377.34;;;21.00;100.00
74868;BME280;63419;42.262;12.210;2022-09-09T23:33:49;97372.09;;;21.00;100.00
74868;BME280;63419;42.262;12.210;2022-09-09T23:36:19;97368.50;;;20.92;100.00
74868;BME280;63419;42.262;12.210;2022-09-09T23:38:46;97366.56;;;20.86;100.00
74868;BME280;63419;42.262;12.210;2022-09-09T23:41:18;97357.41;;;20.82;100.00
74868;BME280;63419;42.262;12.210;2022-09-09T23:43:47;97355.78;;;20.73;100.00
74868;BME280;63419;42.262;12.210;2022-09-09T23:46:16;97350.84;;;20.78;100.00
74868;BME280;63419;42.262;12.210;2022-09-09T23:48:46;97343.81;;;20.79;100.00
74868;BME280;63419;42.262;12.210;2022-09-09T23:51:19;97345.59;;;20.86;100.00
74868;BME280;63419;42.262;12.210;2022-09-09T23:53:50;97345.13;;;20.66;100.00
74868;BME280;63419;42.262;12.210;2022-09-09T23:56:19;97341.50;;;20.67;100.00
74868;BME280;63419;42.262;12.210;2022-09-09T23:58:47;97331.84;;;20.84;100.00
